sensor_id;sensor_type;location;lat;lon;timestamp;P1;durP1;ratioP1;P2;durP2;ratioP2
43996;SDS011;34318;45.818;15.964;2023-05-10T00:00:31;9.68;;;7.07;;
43996;SDS011;34318;45.818;15.964;2023-05-10T00:02:58;11.30;;;5.97;;
43996;SDS011;34318;45.818;15.964;2023-05-10T00:05:26;7.93;;;6.15;;
43996;SDS011;34318;45.818;15.964;2023-05-10T00:07:53;8.80;;;6.43;;
43996;SDS011;34318;45.818;15.964;2023-05-10T00:10:20;10.38;;;6.35;;
43996;SDS011;34318;45.818;15.964;2023-05-10T00:12:47;9.77;;;6.18;;
43996;SDS011;34318;45.818;15.964;2023-05-10T00:15:14;9.00;;;6.20;;
43996;SDS011;34318;45.818;15.964;2023-05-10T00:17:42;8.98;;;6.40;;
43996;SDS011;34318;45.818;15.964;2023-05-10T00:20:09;7.97;;;5.65;;
43996;SDS011;34318;45.818;15.964;2023-05-10T00:22:36;7.70;;;5.50;;
43996;SDS011;34318;45.818;15.964;2023-05-10T00:25:04;8.70;;;6.15;;
43996;SDS011;34318;45.818;15.964;2023-05-10T00:27:35;6.47;;;5.40;;
43996;SDS011;34318;45.818;15.964;2023-05-10T00:30:04;12.88;;;5.97;;
43996;SDS011;34318;45.818;15.964;2023-05-10T00:32:32;7.53;;;5.32;;
43996;SDS011;34318;45.818;15.964;2023-05-10T00:34:59;8.43;;;5.50;;
43996;SDS011;34318;45.818;15.964;2023-05-10T00:37:26;6.82;;;5.10;;
43996;SDS011;34318;45.818;15.964;2023-05-10T00:39:54;6.88;;;5.82;;
43996;SDS011;34318;45.818;15.964;2023-05-10T00:42:21;10.50;;;6.50;;
43996;SDS011;34318;45.818;15.964;2023-05-10T00:44:48;6.50;;;5.78;;
43996;SDS011;34318;45.818;15.964;2023-05-10T00:47:15;8.30;;;5.85;;
43996;SDS011;34318;45.818;15.964;2023-05-10T00:49:43;7.75;;;4.90;;
43996;SDS011;34318;45.818;15.964;2023-05-10T00:52:10;7.95;;;5.72;;
43996;SDS011;34318;45.818;15.964;2023-05-10T00:54:38;8.30;;;4.95;;
43996;SDS011;34318;45.818;15.964;2023-05-10T00:57:05;6.22;;;5.22;;
43996;SDS011;34318;45.818;15.964;2023-05-10T00:59:32;5.35;;;4.85;;
43996;SDS011;34318;45.818;15.964;2023-05-10T01:01:59;7.22;;;5.50;;
43996;SDS011;34318;45.818;15.964;2023-05-10T01:04:27;5.63;;;5.07;;
43996;SDS011;34318;45.818;15.964;2023-05-10T01:06:54;7.32;;;5.50;;
43996;SDS011;34318;45.818;15.964;2023-05-10T01:09:22;5.90;;;4.93;;
43996;SDS011;34318;45.818;15.964;2023-05-10T01:11:52;6.50;;;4.88;;
43996;SDS011;34318;45.818;15.964;2023-05-10T01:14:20;5.43;;;4.25;;
43996;SDS011;34318;45.818;15.964;2023-05-10T01:16:48;6.60;;;5.20;;
43996;SDS011;34318;45.818;15.964;2023-05-10T01:21:48;5.75;;;5.15;;
43996;SDS011;34318;45.818;15.964;2023-05-10T01:27:07;7.40;;;5.65;;
43996;SDS011;34318;45.818;15.964;2023-05-10T01:35:19;6.35;;;4.80;;
43996;SDS011;34318;45.818;15.964;2023-05-10T01:37:52;5.95;;;5.03;;
43996;SDS011;34318;45.818;15.964;2023-05-10T01:40:32;5.25;;;4.25;;
43996;SDS011;34318;45.818;15.964;2023-05-10T01:43:00;7.13;;;5.15;;
43996;SDS011;34318;45.818;15.964;2023-05-10T01:48:00;7.45;;;4.80;;
43996;SDS011;34318;45.818;15.964;2023-05-10T01:50:29;10.32;;;5.18;;
43996;SDS011;34318;45.818;15.964;2023-05-10T01:52:57;8.35;;;5.18;;
43996;SDS011;34318;45.818;15.964;2023-05-10T01:55:27;6.45;;;4.82;;
43996;SDS011;34318;45.818;15.964;2023-05-10T01:58:05;4.60;;;4.20;;
43996;SDS011;34318;45.818;15.964;2023-05-10T02:00:34;5.88;;;4.70;;
43996;SDS011;34318;45.818;15.964;2023-05-10T02:03:03;5.40;;;4.85;;
43996;SDS011;34318;45.818;15.964;2023-05-10T02:05:32;5.15;;;4.15;;
43996;SDS011;34318;45.818;15.964;2023-05-10T02:08:00;9.10;;;4.72;;
43996;SDS011;34318;45.818;15.964;2023-05-10T02:10:28;4.85;;;4.07;;
43996;SDS011;34318;45.818;15.964;2023-05-10T02:12:56;4.93;;;4.40;;
43996;SDS011;34318;45.818;15.964;2023-05-10T02:15:25;4.90;;;4.05;;
43996;SDS011;34318;45.818;15.964;2023-05-10T02:17:54;5.75;;;4.30;;
43996;SDS011;34318;45.818;15.964;2023-05-10T02:20:22;5.68;;;4.72;;
43996;SDS011;34318;45.818;15.964;2023-05-10T02:22:50;6.90;;;4.93;;
43996;SDS011;34318;45.818;15.964;2023-05-10T02:25:19;5.60;;;5.03;;
43996;SDS011;34318;45.818;15.964;2023-05-10T02:27:47;4.38;;;3.95;;
43996;SDS011;34318;45.818;15.964;2023-05-10T02:30:15;4.40;;;3.97;;
43996;SDS011;34318;45.818;15.964;2023-05-10T02:32:44;6.43;;;4.65;;
43996;SDS011;34318;45.818;15.964;2023-05-10T02:35:12;4.50;;;4.07;;
43996;SDS011;34318;45.818;15.964;2023-05-10T02:37:39;5.35;;;4.10;;
43996;SDS011;34318;45.818;15.964;2023-05-10T02:40:07;4.13;;;3.58;;
43996;SDS011;34318;45.818;15.964;2023-05-10T02:42:35;6.20;;;4.68;;
43996;SDS011;34318;45.818;15.964;2023-05-10T02:45:23;6.85;;;4.05;;
43996;SDS011;34318;45.818;15.964;2023-05-10T02:47:51;6.45;;;4.53;;
43996;SDS011;34318;45.818;15.964;2023-05-10T02:50:19;4.15;;;3.65;;
43996;SDS011;34318;45.818;15.964;2023-05-10T02:52:47;4.45;;;3.85;;
43996;SDS011;34318;45.818;15.964;2023-05-10T02:55:15;4.55;;;3.85;;
43996;SDS011;34318;45.818;15.964;2023-05-10T02:57:45;5.00;;;3.90;;
43996;SDS011;34318;45.818;15.964;2023-05-10T03:00:15;3.65;;;3.35;;
43996;SDS011;34318;45.818;15.964;2023-05-10T03:02:42;6.10;;;4.00;;
43996;SDS011;34318;45.818;15.964;2023-05-10T03:05:09;4.93;;;4.00;;
43996;SDS011;34318;45.818;15.964;2023-05-10T03:07:37;5.15;;;4.40;;
43996;SDS011;34318;45.818;15.964;2023-05-10T03:10:04;5.18;;;4.03;;
43996;SDS011;34318;45.818;15.964;2023-05-10T03:15:03;8.05;;;4.32;;
43996;SDS011;34318;45.818;15.964;2023-05-10T03:20:04;4.22;;;3.75;;
43996;SDS011;34318;45.818;15.964;2023-05-10T03:22:37;5.20;;;3.83;;
43996;SDS011;34318;45.818;15.964;2023-05-10T03:25:05;5.07;;;4.15;;
43996;SDS011;34318;45.818;15.964;2023-05-10T03:27:33;4.05;;;3.65;;
43996;SDS011;34318;45.818;15.964;2023-05-10T03:30:01;4.07;;;3.67;;
43996;SDS011;34318;45.818;15.964;2023-05-10T03:32:29;4.90;;;4.13;;
43996;SDS011;34318;45.818;15.964;2023-05-10T03:34:58;4.80;;;4.30;;
43996;SDS011;34318;45.818;15.964;2023-05-10T03:37:25;4.82;;;4.15;;
43996;SDS011;34318;45.818;15.964;2023-05-10T03:39:52;3.95;;;3.55;;
43996;SDS011;34318;45.818;15.964;2023-05-10T03:42:19;3.97;;;3.55;;
43996;SDS011;34318;45.818;15.964;2023-05-10T03:44:47;4.00;;;3.60;;
43996;SDS011;34318;45.818;15.964;2023-05-10T03:47:15;4.65;;;3.80;;
43996;SDS011;34318;45.818;15.964;2023-05-10T03:49:42;5.53;;;3.97;;
43996;SDS011;34318;45.818;15.964;2023-05-10T03:52:10;4.90;;;4.03;;
43996;SDS011;34318;45.818;15.964;2023-05-10T03:54:37;4.43;;;3.63;;
43996;SDS011;34318;45.818;15.964;2023-05-10T03:57:04;4.32;;;3.53;;
43996;SDS011;34318;45.818;15.964;2023-05-10T03:59:31;4.25;;;3.63;;
43996;SDS011;34318;45.818;15.964;2023-05-10T04:02:01;5.18;;;4.03;;
43996;SDS011;34318;45.818;15.964;2023-05-10T04:04:29;4.18;;;3.38;;
43996;SDS011;34318;45.818;15.964;2023-05-10T04:06:56;6.25;;;3.55;;
43996;SDS011;34318;45.818;15.964;2023-05-10T04:09:23;3.95;;;3.30;;
43996;SDS011;34318;45.818;15.964;2023-05-10T04:11:51;3.55;;;3.25;;
43996;SDS011;34318;45.818;15.964;2023-05-10T04:14:18;5.00;;;3.85;;
43996;SDS011;34318;45.818;15.964;2023-05-10T04:16:45;3.50;;;3.20;;
43996;SDS011;34318;45.818;15.964;2023-05-10T04:19:13;4.43;;;3.58;;
43996;SDS011;34318;45.818;15.964;2023-05-10T04:21:40;5.20;;;3.45;;
43996;SDS011;34318;45.818;15.964;2023-05-10T04:24:07;3.92;;;3.58;;
43996;SDS011;34318;45.818;15.964;2023-05-10T04:26:34;4.97;;;3.88;;
43996;SDS011;34318;45.818;15.964;2023-05-10T04:29:01;4.65;;;3.80;;
43996;SDS011;34318;45.818;15.964;2023-05-10T04:31:30;5.40;;;3.42;;
43996;SDS011;34318;45.818;15.964;2023-05-10T04:33:57;4.00;;;3.35;;
43996;SDS011;34318;45.818;15.964;2023-05-10T04:36:25;4.57;;;3.60;;
43996;SDS011;34318;45.818;15.964;2023-05-10T04:38:52;3.70;;;3.40;;
43996;SDS011;34318;45.818;15.964;2023-05-10T04:41:19;3.80;;;3.42;;
43996;SDS011;34318;45.818;15.964;2023-05-10T04:43:46;4.28;;;3.85;;
43996;SDS011;34318;45.818;15.964;2023-05-10T04:46:15;4.18;;;3.42;;
43996;SDS011;34318;45.818;15.964;2023-05-10T04:48:42;5.38;;;3.42;;
43996;SDS011;34318;45.818;15.964;2023-05-10T04:51:10;6.32;;;3.80;;
43996;SDS011;34318;45.818;15.964;2023-05-10T04:53:38;4.60;;;3.42;;
43996;SDS011;34318;45.818;15.964;2023-05-10T04:56:06;5.60;;;3.50;;
43996;SDS011;34318;45.818;15.964;2023-05-10T04:58:34;5.53;;;3.47;;
43996;SDS011;34318;45.818;15.964;2023-05-10T05:01:05;4.22;;;3.45;;
43996;SDS011;34318;45.818;15.964;2023-05-10T05:03:33;6.15;;;4.20;;
43996;SDS011;34318;45.818;15.964;2023-05-10T05:06:00;5.53;;;3.70;;
43996;SDS011;34318;45.818;15.964;2023-05-10T05:08:27;6.72;;;3.80;;
43996;SDS011;34318;45.818;15.964;2023-05-10T05:10:54;5.22;;;3.95;;
43996;SDS011;34318;45.818;15.964;2023-05-10T05:13:22;6.05;;;4.68;;
43996;SDS011;34318;45.818;15.964;2023-05-10T05:15:49;6.93;;;5.50;;
43996;SDS011;34318;45.818;15.964;2023-05-10T05:18:16;10.35;;;6.40;;
43996;SDS011;34318;45.818;15.964;2023-05-10T05:20:45;8.35;;;5.90;;
43996;SDS011;34318;45.818;15.964;2023-05-10T05:23:12;13.85;;;6.45;;
43996;SDS011;34318;45.818;15.964;2023-05-10T05:25:39;6.20;;;5.60;;
43996;SDS011;34318;45.818;15.964;2023-05-10T05:28:06;8.77;;;5.75;;
43996;SDS011;34318;45.818;15.964;2023-05-10T05:30:34;7.70;;;5.88;;
43996;SDS011;34318;45.818;15.964;2023-05-10T05:33:01;10.20;;;6.20;;
43996;SDS011;34318;45.818;15.964;2023-05-10T05:35:28;10.50;;;7.20;;
43996;SDS011;34318;45.818;15.964;2023-05-10T05:37:55;10.13;;;6.07;;
43996;SDS011;34318;45.818;15.964;2023-05-10T05:40:22;10.18;;;6.68;;
43996;SDS011;34318;45.818;15.964;2023-05-10T05:42:50;12.07;;;6.97;;
43996;SDS011;34318;45.818;15.964;2023-05-10T05:45:17;6.90;;;6.18;;
43996;SDS011;34318;45.818;15.964;2023-05-10T05:47:44;8.40;;;6.60;;
43996;SDS011;34318;45.818;15.964;2023-05-10T05:50:12;8.43;;;6.75;;
43996;SDS011;34318;45.818;15.964;2023-05-10T05:52:39;8.85;;;6.53;;
43996;SDS011;34318;45.818;15.964;2023-05-10T05:55:06;8.48;;;6.93;;
43996;SDS011;34318;45.818;15.964;2023-05-10T05:57:34;8.50;;;7.00;;
43996;SDS011;34318;45.818;15.964;2023-05-10T06:00:01;8.60;;;6.25;;
43996;SDS011;34318;45.818;15.964;2023-05-10T06:02:29;9.43;;;6.70;;
43996;SDS011;34318;45.818;15.964;2023-05-10T06:04:56;8.77;;;7.47;;
43996;SDS011;34318;45.818;15.964;2023-05-10T06:07:23;10.07;;;7.07;;
43996;SDS011;34318;45.818;15.964;2023-05-10T06:09:51;12.57;;;7.78;;
43996;SDS011;34318;45.818;15.964;2023-05-10T06:12:18;14.32;;;8.43;;
43996;SDS011;34318;45.818;15.964;2023-05-10T06:14:46;11.13;;;7.72;;
43996;SDS011;34318;45.818;15.964;2023-05-10T06:17:13;11.23;;;8.07;;
43996;SDS011;34318;45.818;15.964;2023-05-10T06:19:40;11.40;;;8.30;;
43996;SDS011;34318;45.818;15.964;2023-05-10T06:22:07;8.77;;;7.10;;
43996;SDS011;34318;45.818;15.964;2023-05-10T06:24:34;14.70;;;8.10;;
43996;SDS011;34318;45.818;15.964;2023-05-10T06:27:02;12.38;;;7.88;;
43996;SDS011;34318;45.818;15.964;2023-05-10T06:29:30;13.73;;;8.45;;
43996;SDS011;34318;45.818;15.964;2023-05-10T06:31:57;10.82;;;8.35;;
43996;SDS011;34318;45.818;15.964;2023-05-10T06:34:24;14.00;;;8.35;;
43996;SDS011;34318;45.818;15.964;2023-05-10T06:36:52;10.98;;;7.00;;
43996;SDS011;34318;45.818;15.964;2023-05-10T06:39:19;12.73;;;7.53;;
43996;SDS011;34318;45.818;15.964;2023-05-10T06:41:47;8.25;;;7.45;;
43996;SDS011;34318;45.818;15.964;2023-05-10T06:44:14;8.95;;;8.05;;
43996;SDS011;34318;45.818;15.964;2023-05-10T06:46:41;8.77;;;7.80;;
43996;SDS011;34318;45.818;15.964;2023-05-10T06:49:09;9.80;;;8.40;;
43996;SDS011;34318;45.818;15.964;2023-05-10T06:51:36;11.23;;;8.02;;
43996;SDS011;34318;45.818;15.964;2023-05-10T06:54:03;10.63;;;8.57;;
43996;SDS011;34318;45.818;15.964;2023-05-10T06:56:30;9.98;;;8.32;;
43996;SDS011;34318;45.818;15.964;2023-05-10T06:58:57;11.07;;;8.18;;
43996;SDS011;34318;45.818;15.964;2023-05-10T07:01:25;10.32;;;7.85;;
43996;SDS011;34318;45.818;15.964;2023-05-10T07:03:52;10.30;;;7.97;;
43996;SDS011;34318;45.818;15.964;2023-05-10T07:06:19;8.23;;;7.20;;
43996;SDS011;34318;45.818;15.964;2023-05-10T07:08:58;10.25;;;7.72;;
43996;SDS011;34318;45.818;15.964;2023-05-10T07:11:26;12.20;;;7.57;;
43996;SDS011;34318;45.818;15.964;2023-05-10T07:13:53;8.15;;;7.35;;
43996;SDS011;34318;45.818;15.964;2023-05-10T07:16:20;12.65;;;7.45;;
43996;SDS011;34318;45.818;15.964;2023-05-10T07:18:48;8.48;;;7.15;;
43996;SDS011;34318;45.818;15.964;2023-05-10T07:21:16;8.38;;;7.50;;
43996;SDS011;34318;45.818;15.964;2023-05-10T07:23:44;8.10;;;7.22;;
43996;SDS011;34318;45.818;15.964;2023-05-10T07:26:11;11.43;;;7.45;;
43996;SDS011;34318;45.818;15.964;2023-05-10T07:28:38;13.55;;;8.13;;
43996;SDS011;34318;45.818;15.964;2023-05-10T07:31:05;8.35;;;6.72;;
43996;SDS011;34318;45.818;15.964;2023-05-10T07:33:33;7.47;;;6.72;;
43996;SDS011;34318;45.818;15.964;2023-05-10T07:36:00;8.52;;;7.38;;
43996;SDS011;34318;45.818;15.964;2023-05-10T07:38:27;7.97;;;6.93;;
43996;SDS011;34318;45.818;15.964;2023-05-10T07:40:54;8.13;;;6.97;;
43996;SDS011;34318;45.818;15.964;2023-05-10T07:43:22;9.88;;;7.15;;
43996;SDS011;34318;45.818;15.964;2023-05-10T07:45:49;9.57;;;6.55;;
43996;SDS011;34318;45.818;15.964;2023-05-10T07:48:19;8.00;;;7.13;;
43996;SDS011;34318;45.818;15.964;2023-05-10T07:50:46;11.52;;;7.53;;
43996;SDS011;34318;45.818;15.964;2023-05-10T07:53:13;7.18;;;6.35;;
43996;SDS011;34318;45.818;15.964;2023-05-10T07:55:40;7.78;;;6.38;;
43996;SDS011;34318;45.818;15.964;2023-05-10T07:58:07;10.02;;;6.85;;
43996;SDS011;34318;45.818;15.964;2023-05-10T08:00:35;9.38;;;6.95;;
43996;SDS011;34318;45.818;15.964;2023-05-10T08:03:07;6.70;;;5.88;;
43996;SDS011;34318;45.818;15.964;2023-05-10T08:05:35;9.00;;;6.43;;
43996;SDS011;34318;45.818;15.964;2023-05-10T08:08:02;8.70;;;6.43;;
43996;SDS011;34318;45.818;15.964;2023-05-10T08:10:29;7.40;;;5.82;;
43996;SDS011;34318;45.818;15.964;2023-05-10T08:12:56;6.72;;;5.80;;
43996;SDS011;34318;45.818;15.964;2023-05-10T08:15:24;7.10;;;6.40;;
43996;SDS011;34318;45.818;15.964;2023-05-10T08:17:52;7.50;;;6.40;;
43996;SDS011;34318;45.818;15.964;2023-05-10T08:20:19;7.07;;;6.38;;
43996;SDS011;34318;45.818;15.964;2023-05-10T08:22:46;9.40;;;6.65;;
43996;SDS011;34318;45.818;15.964;2023-05-10T08:25:16;8.90;;;5.80;;
43996;SDS011;34318;45.818;15.964;2023-05-10T08:27:44;6.60;;;5.85;;
43996;SDS011;34318;45.818;15.964;2023-05-10T08:30:12;8.45;;;6.47;;
43996;SDS011;34318;45.818;15.964;2023-05-10T08:32:39;6.22;;;5.57;;
43996;SDS011;34318;45.818;15.964;2023-05-10T08:35:06;5.72;;;5.20;;
43996;SDS011;34318;45.818;15.964;2023-05-10T08:37:34;7.40;;;5.43;;
43996;SDS011;34318;45.818;15.964;2023-05-10T08:40:01;6.72;;;6.13;;
43996;SDS011;34318;45.818;15.964;2023-05-10T08:42:30;6.18;;;5.10;;
43996;SDS011;34318;45.818;15.964;2023-05-10T08:44:57;6.72;;;6.03;;
43996;SDS011;34318;45.818;15.964;2023-05-10T08:47:26;8.20;;;6.07;;
43996;SDS011;34318;45.818;15.964;2023-05-10T08:49:53;10.60;;;6.22;;
43996;SDS011;34318;45.818;15.964;2023-05-10T08:52:21;6.70;;;6.10;;
43996;SDS011;34318;45.818;15.964;2023-05-10T08:54:49;6.25;;;5.45;;
43996;SDS011;34318;45.818;15.964;2023-05-10T08:57:18;6.53;;;5.93;;
43996;SDS011;34318;45.818;15.964;2023-05-10T08:59:46;6.55;;;5.47;;
43996;SDS011;34318;45.818;15.964;2023-05-10T09:02:14;6.72;;;5.80;;
43996;SDS011;34318;45.818;15.964;2023-05-10T09:04:43;5.75;;;5.25;;
43996;SDS011;34318;45.818;15.964;2023-05-10T09:10:14;6.70;;;6.10;;
43996;SDS011;34318;45.818;15.964;2023-05-10T09:12:42;7.22;;;6.15;;
43996;SDS011;34318;45.818;15.964;2023-05-10T09:15:23;6.07;;;5.40;;
43996;SDS011;34318;45.818;15.964;2023-05-10T09:17:51;7.60;;;5.50;;
43996;SDS011;34318;45.818;15.964;2023-05-10T09:20:18;6.05;;;5.45;;
43996;SDS011;34318;45.818;15.964;2023-05-10T09:22:45;6.57;;;5.97;;
43996;SDS011;34318;45.818;15.964;2023-05-10T09:25:13;6.55;;;5.93;;
43996;SDS011;34318;45.818;15.964;2023-05-10T09:27:44;6.35;;;5.72;;
43996;SDS011;34318;45.818;15.964;2023-05-10T09:30:15;6.85;;;5.90;;
43996;SDS011;34318;45.818;15.964;2023-05-10T09:32:44;7.32;;;5.65;;
43996;SDS011;34318;45.818;15.964;2023-05-10T09:35:12;7.85;;;5.70;;
43996;SDS011;34318;45.818;15.964;2023-05-10T09:37:40;8.65;;;5.80;;
43996;SDS011;34318;45.818;15.964;2023-05-10T09:40:08;6.20;;;5.60;;
43996;SDS011;34318;45.818;15.964;2023-05-10T09:42:38;6.38;;;5.45;;
43996;SDS011;34318;45.818;15.964;2023-05-10T09:45:05;6.28;;;5.55;;
43996;SDS011;34318;45.818;15.964;2023-05-10T09:47:34;10.63;;;5.68;;
43996;SDS011;34318;45.818;15.964;2023-05-10T09:50:02;7.88;;;5.93;;
43996;SDS011;34318;45.818;15.964;2023-05-10T09:52:30;6.05;;;5.22;;
43996;SDS011;34318;45.818;15.964;2023-05-10T09:54:58;6.78;;;5.72;;
43996;SDS011;34318;45.818;15.964;2023-05-10T09:57:25;5.88;;;5.28;;
43996;SDS011;34318;45.818;15.964;2023-05-10T09:59:52;5.78;;;5.28;;
43996;SDS011;34318;45.818;15.964;2023-05-10T10:02:20;6.70;;;5.43;;
43996;SDS011;34318;45.818;15.964;2023-05-10T10:04:48;7.50;;;5.13;;
43996;SDS011;34318;45.818;15.964;2023-05-10T10:07:17;7.30;;;5.50;;
43996;SDS011;34318;45.818;15.964;2023-05-10T10:09:49;8.23;;;5.40;;
43996;SDS011;34318;45.818;15.964;2023-05-10T10:12:16;5.35;;;4.85;;
43996;SDS011;34318;45.818;15.964;2023-05-10T10:14:48;5.63;;;5.13;;
43996;SDS011;34318;45.818;15.964;2023-05-10T10:17:18;6.25;;;5.10;;
43996;SDS011;34318;45.818;15.964;2023-05-10T10:19:46;6.20;;;5.32;;
43996;SDS011;34318;45.818;15.964;2023-05-10T10:22:15;5.55;;;5.05;;
43996;SDS011;34318;45.818;15.964;2023-05-10T10:24:43;5.72;;;5.20;;
43996;SDS011;34318;45.818;15.964;2023-05-10T10:34:36;4.80;;;4.40;;
43996;SDS011;34318;45.818;15.964;2023-05-10T10:37:05;5.68;;;5.15;;
43996;SDS011;34318;45.818;15.964;2023-05-10T10:39:32;5.28;;;4.75;;
43996;SDS011;34318;45.818;15.964;2023-05-10T10:42:03;6.05;;;5.10;;
43996;SDS011;34318;45.818;15.964;2023-05-10T10:50:07;5.63;;;5.13;;
43996;SDS011;34318;45.818;15.964;2023-05-10T10:57:49;5.72;;;5.13;;
43996;SDS011;34318;45.818;15.964;2023-05-10T11:00:21;5.97;;;4.82;;
43996;SDS011;34318;45.818;15.964;2023-05-10T11:02:53;5.35;;;4.85;;
43996;SDS011;34318;45.818;15.964;2023-05-10T11:08:08;6.30;;;4.85;;
43996;SDS011;34318;45.818;15.964;2023-05-10T11:10:36;6.22;;;4.70;;
43996;SDS011;34318;45.818;15.964;2023-05-10T11:13:07;6.70;;;4.95;;
43996;SDS011;34318;45.818;15.964;2023-05-10T11:15:37;5.40;;;4.90;;
43996;SDS011;34318;45.818;15.964;2023-05-10T11:18:16;5.22;;;4.63;;
43996;SDS011;34318;45.818;15.964;2023-05-10T11:20:44;5.78;;;5.05;;
43996;SDS011;34318;45.818;15.964;2023-05-10T11:23:13;6.78;;;5.07;;
43996;SDS011;34318;45.818;15.964;2023-05-10T11:25:42;5.70;;;4.75;;
43996;SDS011;34318;45.818;15.964;2023-05-10T11:28:10;5.82;;;5.22;;
43996;SDS011;34318;45.818;15.964;2023-05-10T11:30:38;5.28;;;4.78;;
43996;SDS011;34318;45.818;15.964;2023-05-10T11:33:07;6.82;;;4.90;;
43996;SDS011;34318;45.818;15.964;2023-05-10T11:35:37;5.78;;;4.78;;
43996;SDS011;34318;45.818;15.964;2023-05-10T11:38:09;6.35;;;5.72;;
43996;SDS011;34318;45.818;15.964;2023-05-10T11:40:36;5.32;;;4.82;;
43996;SDS011;34318;45.818;15.964;2023-05-10T11:43:04;11.10;;;5.35;;
43996;SDS011;34318;45.818;15.964;2023-05-10T11:45:32;7.10;;;5.45;;
43996;SDS011;34318;45.818;15.964;2023-05-10T11:47:59;6.25;;;4.80;;
43996;SDS011;34318;45.818;15.964;2023-05-10T11:50:27;8.43;;;5.05;;
43996;SDS011;34318;45.818;15.964;2023-05-10T11:52:55;5.65;;;5.03;;
43996;SDS011;34318;45.818;15.964;2023-05-10T11:55:22;8.70;;;6.38;;
43996;SDS011;34318;45.818;15.964;2023-05-10T11:57:53;5.05;;;4.38;;
43996;SDS011;34318;45.818;15.964;2023-05-10T12:00:20;7.25;;;5.32;;
43996;SDS011;34318;45.818;15.964;2023-05-10T12:02:48;8.48;;;5.50;;
43996;SDS011;34318;45.818;15.964;2023-05-10T12:05:16;7.72;;;5.63;;
43996;SDS011;34318;45.818;15.964;2023-05-10T12:07:43;9.50;;;5.88;;
43996;SDS011;34318;45.818;15.964;2023-05-10T12:10:11;7.32;;;5.50;;
43996;SDS011;34318;45.818;15.964;2023-05-10T12:12:44;7.68;;;5.63;;
43996;SDS011;34318;45.818;15.964;2023-05-10T12:15:17;8.00;;;6.20;;
43996;SDS011;34318;45.818;15.964;2023-05-10T12:17:48;6.35;;;5.72;;
43996;SDS011;34318;45.818;15.964;2023-05-10T12:20:19;8.00;;;6.15;;
43996;SDS011;34318;45.818;15.964;2023-05-10T12:22:47;6.75;;;5.40;;
43996;SDS011;34318;45.818;15.964;2023-05-10T12:25:16;9.68;;;5.80;;
43996;SDS011;34318;45.818;15.964;2023-05-10T12:27:51;5.47;;;4.85;;
43996;SDS011;34318;45.818;15.964;2023-05-10T12:30:28;8.30;;;6.37;;
43996;SDS011;34318;45.818;15.964;2023-05-10T12:33:11;8.75;;;5.60;;
43996;SDS011;34318;45.818;15.964;2023-05-10T12:35:43;6.28;;;5.55;;
43996;SDS011;34318;45.818;15.964;2023-05-10T12:39:00;8.75;;;6.18;;
43996;SDS011;34318;45.818;15.964;2023-05-10T12:41:07;7.22;;;6.15;;
43996;SDS011;34318;45.818;15.964;2023-05-10T12:43:35;8.02;;;5.68;;
43996;SDS011;34318;45.818;15.964;2023-05-10T12:46:09;8.73;;;6.55;;
43996;SDS011;34318;45.818;15.964;2023-05-10T12:48:37;13.23;;;7.35;;
43996;SDS011;34318;45.818;15.964;2023-05-10T12:51:05;10.05;;;7.10;;
43996;SDS011;34318;45.818;15.964;2023-05-10T12:53:35;6.95;;;6.15;;
43996;SDS011;34318;45.818;15.964;2023-05-10T12:56:03;8.57;;;6.22;;
43996;SDS011;34318;45.818;15.964;2023-05-10T12:58:30;10.38;;;6.70;;
43996;SDS011;34318;45.818;15.964;2023-05-10T13:01:01;11.43;;;7.28;;
43996;SDS011;34318;45.818;15.964;2023-05-10T13:03:29;13.25;;;7.47;;
43996;SDS011;34318;45.818;15.964;2023-05-10T13:05:56;9.15;;;7.35;;
43996;SDS011;34318;45.818;15.964;2023-05-10T13:08:23;12.57;;;7.25;;
43996;SDS011;34318;45.818;15.964;2023-05-10T13:10:51;13.23;;;7.03;;
43996;SDS011;34318;45.818;15.964;2023-05-10T13:13:18;11.15;;;7.18;;
43996;SDS011;34318;45.818;15.964;2023-05-10T13:15:45;11.45;;;7.72;;
43996;SDS011;34318;45.818;15.964;2023-05-10T13:18:12;11.07;;;7.40;;
43996;SDS011;34318;45.818;15.964;2023-05-10T13:20:40;17.65;;;7.60;;
43996;SDS011;34318;45.818;15.964;2023-05-10T13:23:07;7.53;;;6.35;;
43996;SDS011;34318;45.818;15.964;2023-05-10T13:25:34;8.93;;;7.43;;
43996;SDS011;34318;45.818;15.964;2023-05-10T13:28:01;8.50;;;6.30;;
43996;SDS011;34318;45.818;15.964;2023-05-10T13:30:29;12.23;;;6.80;;
43996;SDS011;34318;45.818;15.964;2023-05-10T13:32:56;10.45;;;6.75;;
43996;SDS011;34318;45.818;15.964;2023-05-10T13:35:23;11.48;;;5.70;;
43996;SDS011;34318;45.818;15.964;2023-05-10T13:37:51;12.30;;;6.78;;
43996;SDS011;34318;45.818;15.964;2023-05-10T13:40:19;10.65;;;6.03;;
43996;SDS011;34318;45.818;15.964;2023-05-10T13:42:46;13.27;;;6.22;;
43996;SDS011;34318;45.818;15.964;2023-05-10T13:45:13;8.48;;;7.13;;
43996;SDS011;34318;45.818;15.964;2023-05-10T13:47:41;7.55;;;6.75;;
43996;SDS011;34318;45.818;15.964;2023-05-10T13:50:08;15.60;;;6.80;;
43996;SDS011;34318;45.818;15.964;2023-05-10T13:52:36;10.82;;;5.60;;
43996;SDS011;34318;45.818;15.964;2023-05-10T13:55:03;12.10;;;5.78;;
43996;SDS011;34318;45.818;15.964;2023-05-10T13:57:30;7.22;;;5.65;;
43996;SDS011;34318;45.818;15.964;2023-05-10T13:59:57;8.68;;;6.20;;
43996;SDS011;34318;45.818;15.964;2023-05-10T14:02:25;14.68;;;6.43;;
43996;SDS011;34318;45.818;15.964;2023-05-10T14:04:53;7.70;;;6.07;;
43996;SDS011;34318;45.818;15.964;2023-05-10T14:07:20;9.13;;;6.40;;
43996;SDS011;34318;45.818;15.964;2023-05-10T14:09:48;7.40;;;5.72;;
43996;SDS011;34318;45.818;15.964;2023-05-10T14:12:15;8.48;;;5.60;;
43996;SDS011;34318;45.818;15.964;2023-05-10T14:14:42;7.70;;;5.93;;
43996;SDS011;34318;45.818;15.964;2023-05-10T14:17:09;8.55;;;6.20;;
43996;SDS011;34318;45.818;15.964;2023-05-10T14:19:37;6.47;;;5.65;;
43996;SDS011;34318;45.818;15.964;2023-05-10T14:22:05;8.93;;;6.28;;
43996;SDS011;34318;45.818;15.964;2023-05-10T14:24:32;9.10;;;5.70;;
43996;SDS011;34318;45.818;15.964;2023-05-10T14:27:00;7.85;;;5.63;;
43996;SDS011;34318;45.818;15.964;2023-05-10T14:29:27;9.88;;;6.35;;
43996;SDS011;34318;45.818;15.964;2023-05-10T14:31:55;10.70;;;5.95;;
43996;SDS011;34318;45.818;15.964;2023-05-10T14:34:23;6.88;;;5.60;;
43996;SDS011;34318;45.818;15.964;2023-05-10T14:36:50;7.72;;;5.10;;
43996;SDS011;34318;45.818;15.964;2023-05-10T14:39:17;8.77;;;5.40;;
43996;SDS011;34318;45.818;15.964;2023-05-10T14:41:46;6.80;;;5.65;;
43996;SDS011;34318;45.818;15.964;2023-05-10T14:44:13;9.25;;;5.00;;
43996;SDS011;34318;45.818;15.964;2023-05-10T14:46:41;7.57;;;5.40;;
43996;SDS011;34318;45.818;15.964;2023-05-10T14:49:10;7.72;;;5.13;;
43996;SDS011;34318;45.818;15.964;2023-05-10T14:51:37;6.43;;;5.35;;
43996;SDS011;34318;45.818;15.964;2023-05-10T14:54:04;6.00;;;5.38;;
43996;SDS011;34318;45.818;15.964;2023-05-10T14:56:31;8.75;;;5.38;;
43996;SDS011;34318;45.818;15.964;2023-05-10T14:58:59;6.78;;;5.55;;
43996;SDS011;34318;45.818;15.964;2023-05-10T15:01:26;8.73;;;5.05;;
43996;SDS011;34318;45.818;15.964;2023-05-10T15:03:54;5.88;;;5.13;;
43996;SDS011;34318;45.818;15.964;2023-05-10T15:06:30;9.65;;;5.68;;
43996;SDS011;34318;45.818;15.964;2023-05-10T15:08:57;10.00;;;5.90;;
43996;SDS011;34318;45.818;15.964;2023-05-10T15:11:25;7.35;;;5.47;;
43996;SDS011;34318;45.818;15.964;2023-05-10T15:13:52;8.57;;;5.57;;
43996;SDS011;34318;45.818;15.964;2023-05-10T15:16:20;7.18;;;5.15;;
43996;SDS011;34318;45.818;15.964;2023-05-10T15:18:47;6.53;;;5.93;;
43996;SDS011;34318;45.818;15.964;2023-05-10T15:21:14;8.05;;;5.88;;